Billings, MT

1:56 PM MDT on October 25, 2014 (GMT -0600)
Billings Logan International | Change Station
CLOSE
Current Station
Airport
Location: Billings,
Elevation: 3570 ft
Nearby Weather Stations

Elev 3570 ft 45.81 °N, 108.54 °W | Updated 3 minutes ago

Clear
Clear
59 °F
Feels Like 59 °F
N
7
Wind Variable Wind from ENE

Today
High -- | Low -- °F
--% Chance of Precip.
Yesterday
High -- | Low -- °F
Precip. -- in
7:44 AM 6:10 PM
Waxing Crescent, 4% visible
Pressure 29.87 in
Visibility 10.0 miles
Clouds Few 20000 ft
Dew Point 36 °F
Humidity 42%
Rainfall 0.00 in
Snow Depth Not available.
UV 3 out of 12
Pollen 2.00 out of 12
Air Quality Not available.
Flu Activity No Activity
METAR KBIL 251953Z 07006KT 10SM FEW200 15/02 A2988 RMK AO2 SLP113 T01500022

More Conditions Fewer Conditions

Pressure 29.87 in
Visibility 10.0 miles
Clouds Few 20000 ft
Dew Point 36 °F
Humidity 42%
Rainfall 0.00 in
Snow Depth Not available.
UV 3 out of 12
Pollen 2.00 out of 12
Air Quality Not available.
Flu Activity No Activity
METAR KBIL 251953Z 07006KT 10SM FEW200 15/02 A2988 RMK AO2 SLP113 T01500022

More Conditions Fewer Conditions

10-Day Weather Forecast

Almanac

Astronomy

Oct. 25, 2014 Rise Set
Actual Time 7:44 AM MDT 6:10 PM MDT
Civil Twilight 7:13 AM MDT 6:41 PM MDT
Nautical Twilight 6:38 AM MDT 7:16 PM MDT
Astronomical Twilight 6:04 AM MDT 7:50 PM MDT
Moon 9:30 AM MDT 7:31 PM MDT
Length of Visible Light 11h 27m
Length of Day
10h 26m
Tomorrow will be 3m 0s shorter.
Waxing Crescent, 4% of the Moon is Illuminated
Today
Waxing Crescent
Oct 30
First Quarter
Nov 6
Full
Nov 14
Last Quarter
Nov 22
New

Today's Extremes

State Highs State Lows

Community

WunderPhotos

Upload Photos

1,764,972 photos uploaded!

Nearby

Snow Depth

Station Depth Elevation
Burnt Mountain 0 in 5880 ft
Crystal Lake 1 in 6050 ft
White Mill 0 in 8700 ft
Fisher Creek 1 in 9100 ft
Northeast Entrance 0 in 7350 ft

Earthquake Activity

City Distance Mag. Time & Date
No recent earthquake activity has been reported nearby.
Minimum magnitude displayed is 2.5.

Coastal Water Temperatures

Place Temperature
No Stations Reporting

Nearby Weather Stations